Hauptseite
METAR-TAF:

METAR-TAF

Flughäfen :

Flughafen Heringsdorf

Heringsdorf, Deutschland

Breite: 53-53N, Länge: 014-09E, Höhe: 28 m

Beobachtung

Neuester Wetterbericht von vor 12 Stunden und 41 Minuten, um 14:50 UTC
Wind 15 kt aus Nordost
Temperatur 17°C
Luftfeuchtigkeit 59%
Luftdruck 1024 hPa
Sichtweite 10 km oder mehr
keine Wolken unter 1500 m und keine Kumulonimbus oder Gewitterwolken

METAR: EDAH 241450Z 05015KT CAVOK 17/09 Q1024

Zeit: 05:31 (03:31 UTC)

Prognose

Neuester Wetterbericht von vor 16 Stunden und 31 Minuten, um 11:00 UTC
Gültige Prognose vom 24 um 12 UTC bis 24 um 21 UTC
Wind 14 kt aus Nordost
Sichtweite 10 km oder mehr
keine Wolken unter 1500 m und keine Kumulonimbus oder Gewitterwolken
Zeitweise
vom 24 um 12 UTC bis 24 um 16 UTC
Wind 15 kt aus Nordost, Böen bis zu 25 kt

TAF: EDAH 241100Z 2412/2421 05014KT CAVOK TEMPO 2412/2416 05015G25KT

Wetterbeobachtungen und Prognosen von mehr als 4000 Flughäfen (METAR und TAF Bericht).

Die verfügbaren Stationen werden durch gelbe und rote Markierungen auf der Karte dargestellt.

Führen Sie die Maus auf sie, um den Namen der Station zu sehen.

Darauf klicken, um die Beobachtung von Wetterbeobachtungen und Prognosen zu sehen.

Um die Karte zu ändern : klicken Sie auf den grünen Tasten mit einem schwarzen Kreuz Zum Vergrößern, auf den grünen Button mit einem Gedankenstrich zu verkleinern, oder auf die grünen Pfeile für benachbarte Karten.


METAR-TAF: